createdAt,value
2018-03-24T00:06:37.156Z,6.30
2018-03-24T00:09:05.600Z,6.20
2018-03-24T00:11:33.503Z,6.20
2018-03-24T00:14:01.952Z,6.20
2018-03-24T00:16:29.808Z,6.20
2018-03-24T00:18:57.678Z,6.20
2018-03-24T00:21:26.027Z,6.10
2018-03-24T00:23:54.472Z,6.00
2018-03-24T00:26:22.872Z,5.90
2018-03-24T00:28:50.504Z,5.70
2018-03-24T00:31:18.329Z,5.80
2018-03-24T00:33:46.540Z,5.70
2018-03-24T00:36:14.260Z,5.60
2018-03-24T00:38:42.874Z,5.60
2018-03-24T00:41:10.511Z,5.60
2018-03-24T00:46:32.796Z,5.60
2018-03-24T00:49:01.134Z,5.50
2018-03-24T00:51:28.689Z,5.50
2018-03-24T00:53:56.278Z,5.50
2018-03-24T00:56:23.838Z,5.50
2018-03-24T00:58:51.412Z,5.50
2018-03-24T01:01:19.753Z,5.40
2018-03-24T01:03:47.304Z,5.40
2018-03-24T01:06:14.875Z,5.40
2018-03-24T01:08:42.442Z,5.30
2018-03-24T01:11:10.003Z,5.20
2018-03-24T01:13:37.562Z,5.20
2018-03-24T01:16:05.155Z,5.30
2018-03-24T01:18:33.466Z,5.20
2018-03-24T01:21:01.126Z,5.10
2018-03-24T01:23:28.682Z,5.10
2018-03-24T01:25:56.264Z,5.10
2018-03-24T01:28:23.823Z,5.10
2018-03-24T01:30:51.384Z,5.10
2018-03-24T01:33:18.952Z,5.10
2018-03-24T01:35:46.517Z,5.00
2018-03-24T01:38:14.072Z,5.00
2018-03-24T01:40:41.648Z,4.90
2018-03-24T01:43:09.198Z,4.90
2018-03-24T01:45:36.782Z,4.90
2018-03-24T01:48:04.370Z,4.90
2018-03-24T01:50:32.705Z,4.80
2018-03-24T01:53:00.256Z,4.80
2018-03-24T01:55:27.823Z,4.80
2018-03-24T01:57:55.378Z,4.80
2018-03-24T02:00:22.962Z,4.80
2018-03-24T02:02:50.535Z,4.70
2018-03-24T02:05:18.126Z,4.70
2018-03-24T02:07:45.678Z,4.80
2018-03-24T02:10:13.990Z,4.70
2018-03-24T02:12:41.556Z,4.70
2018-03-24T02:15:09.110Z,4.60
2018-03-24T02:17:36.672Z,4.60
2018-03-24T02:20:05.009Z,4.60
2018-03-24T02:22:32.581Z,4.60
2018-03-24T02:27:55.480Z,4.60
2018-03-24T02:30:23.072Z,4.60
2018-03-24T02:32:50.687Z,4.60
2018-03-24T02:35:18.278Z,4.60
2018-03-24T02:37:45.877Z,4.50
2018-03-24T02:40:13.453Z,4.50
2018-03-24T02:42:41.058Z,4.50
2018-03-24T02:45:08.676Z,4.50
2018-03-24T02:47:36.300Z,4.50
2018-03-24T02:50:03.895Z,4.40
2018-03-24T02:52:32.264Z,4.40
2018-03-24T02:55:00.614Z,4.30
2018-03-24T02:57:28.235Z,4.30
2018-03-24T02:59:55.824Z,4.40
2018-03-24T03:02:24.196Z,4.40
2018-03-24T03:04:52.543Z,4.30
2018-03-24T03:07:20.155Z,4.30
2018-03-24T03:09:47.743Z,4.30
2018-03-24T03:12:15.346Z,4.30
2018-03-24T03:14:42.951Z,4.40
2018-03-24T03:17:10.567Z,4.40
2018-03-24T03:19:38.143Z,4.30
2018-03-24T03:22:05.796Z,4.30
2018-03-24T03:24:34.140Z,4.20
2018-03-24T03:27:01.728Z,4.20
2018-03-24T03:29:30.090Z,4.20
2018-03-24T03:31:59.259Z,4.10
2018-03-24T03:34:26.896Z,4.10
2018-03-24T03:36:54.487Z,4.10
2018-03-24T03:39:22.096Z,4.10
2018-03-24T03:41:49.712Z,4.10
2018-03-24T03:44:18.089Z,3.90
2018-03-24T03:46:45.706Z,3.90
2018-03-24T03:49:13.388Z,3.90
2018-03-24T03:51:40.981Z,3.90
2018-03-24T03:54:09.406Z,4.00
2018-03-24T03:56:36.977Z,3.90
2018-03-24T03:59:04.584Z,4.00
2018-03-24T04:01:32.922Z,4.00
2018-03-24T04:04:00.527Z,4.00
2018-03-24T04:06:28.892Z,4.10
2018-03-24T04:08:56.484Z,4.00
2018-03-24T04:11:24.059Z,4.00
2018-03-24T04:13:51.652Z,4.00
2018-03-24T04:16:19.245Z,3.90
2018-03-24T04:18:46.886Z,4.00
2018-03-24T04:21:14.482Z,4.00
2018-03-24T04:23:42.845Z,3.90
2018-03-24T04:26:10.428Z,3.90
2018-03-24T04:28:38.805Z,3.90
2018-03-24T04:31:07.199Z,3.80
2018-03-24T04:33:34.815Z,3.80
2018-03-24T04:36:02.401Z,3.80
2018-03-24T04:38:30.002Z,3.80
2018-03-24T04:40:57.611Z,3.80
2018-03-24T04:43:25.235Z,3.70
2018-03-24T04:45:52.854Z,3.70
2018-03-24T04:48:20.440Z,3.70
2018-03-24T04:50:48.840Z,3.70
2018-03-24T04:53:16.456Z,3.70
2018-03-24T04:55:44.821Z,3.70
2018-03-24T04:58:12.417Z,3.70
2018-03-24T05:00:40.036Z,3.80
2018-03-24T05:03:08.404Z,3.70
2018-03-24T05:05:36.001Z,3.70
2018-03-24T05:08:04.358Z,3.70
2018-03-24T05:10:32.732Z,3.60
2018-03-24T05:13:00.304Z,3.60
2018-03-24T05:15:28.683Z,3.60
2018-03-24T05:17:57.054Z,3.60
2018-03-24T05:20:25.428Z,3.60
2018-03-24T05:22:53.025Z,3.60
2018-03-24T05:25:20.638Z,3.60
2018-03-24T05:27:48.249Z,3.60
2018-03-24T05:30:15.868Z,3.60
2018-03-24T05:32:43.478Z,3.50
2018-03-24T05:35:11.066Z,4.10
2018-03-24T05:37:38.651Z,3.50
2018-03-24T05:40:06.253Z,3.60
2018-03-24T05:42:33.861Z,3.60
2018-03-24T05:45:01.625Z,3.60
2018-03-24T05:47:29.232Z,3.60
2018-03-24T05:49:56.824Z,3.70
2018-03-24T05:52:24.409Z,3.70
2018-03-24T05:54:52.011Z,3.70
2018-03-24T05:57:19.628Z,3.70
2018-03-24T05:59:47.259Z,3.70
2018-03-24T06:02:15.646Z,3.70
2018-03-24T06:04:44.015Z,3.80
2018-03-24T06:07:11.634Z,3.80
2018-03-24T06:09:39.244Z,4.00
2018-03-24T06:12:06.866Z,4.00
2018-03-24T06:14:34.467Z,4.20
2018-03-24T06:17:02.087Z,4.20
2018-03-24T06:19:29.673Z,4.20
2018-03-24T06:21:57.271Z,4.30
2018-03-24T06:24:24.865Z,4.30
2018-03-24T06:26:53.228Z,4.40
2018-03-24T06:29:21.699Z,4.40
2018-03-24T06:31:51.034Z,4.30
2018-03-24T06:34:18.626Z,4.50
2018-03-24T06:39:44.666Z,4.70
2018-03-24T06:42:12.257Z,4.70
2018-03-24T06:44:39.827Z,4.80
2018-03-24T06:47:08.207Z,5.10
2018-03-24T06:49:35.769Z,5.10
2018-03-24T06:52:04.144Z,8.20
2018-03-24T06:54:31.739Z,8.20
2018-03-24T06:56:59.353Z,8.30
2018-03-24T06:59:26.961Z,7.90
2018-03-24T07:01:54.630Z,7.50
2018-03-24T07:04:22.226Z,7.10
2018-03-24T07:06:49.824Z,6.90
2018-03-24T07:09:18.165Z,6.60
2018-03-24T07:11:45.841Z,6.50
2018-03-24T07:14:13.412Z,6.40
2018-03-24T07:16:41.030Z,6.40
2018-03-24T07:19:08.605Z,6.40
2018-03-24T07:21:36.181Z,6.40
2018-03-24T07:24:04.579Z,6.40
2018-03-24T07:26:32.227Z,6.40
2018-03-24T07:29:02.358Z,6.40
2018-03-24T07:31:29.928Z,6.20
2018-03-24T07:33:58.281Z,6.40
2018-03-24T07:36:25.847Z,6.40
2018-03-24T07:38:53.466Z,6.50
2018-03-24T07:41:21.028Z,6.70
2018-03-24T07:43:57.274Z,6.80
2018-03-24T07:46:25.352Z,6.70
2018-03-24T07:48:52.928Z,6.90
2018-03-24T07:51:20.528Z,7.00
2018-03-24T07:53:48.336Z,7.00
2018-03-24T07:56:16.116Z,6.90
2018-03-24T07:58:43.703Z,7.10
2018-03-24T08:01:11.608Z,7.20
2018-03-24T08:03:40.009Z,7.00
2018-03-24T08:06:07.624Z,7.00
2018-03-24T08:08:35.987Z,7.40
2018-03-24T08:11:03.578Z,7.40
2018-03-24T08:13:31.926Z,7.60
2018-03-24T08:15:59.496Z,7.60
2018-03-24T08:18:27.093Z,7.50
2018-03-24T08:20:54.660Z,7.50
2018-03-24T08:23:22.343Z,7.60
2018-03-24T08:25:51.641Z,7.80
2018-03-24T08:28:19.293Z,7.80
2018-03-24T08:30:46.867Z,7.60
2018-03-24T08:33:14.535Z,7.50
2018-03-24T08:35:42.057Z,7.40
2018-03-24T08:38:09.655Z,7.60
2018-03-24T08:40:38.236Z,8.00
2018-03-24T08:43:06.598Z,7.90
2018-03-24T08:45:34.298Z,7.80
2018-03-24T08:48:02.502Z,7.80
2018-03-24T08:50:30.085Z,7.70
2018-03-24T08:52:57.838Z,7.70
2018-03-24T08:55:25.448Z,8.00
2018-03-24T08:57:53.772Z,8.10
2018-03-24T09:00:21.389Z,8.10
2018-03-24T09:02:49.708Z,8.00
2018-03-24T09:05:17.289Z,8.00
2018-03-24T09:07:44.875Z,8.10
2018-03-24T09:10:13.216Z,8.10
2018-03-24T09:12:41.567Z,8.10
2018-03-24T09:15:09.259Z,8.10
2018-03-24T09:17:36.799Z,8.40
2018-03-24T09:20:04.429Z,8.60
2018-03-24T09:22:31.988Z,8.60
2018-03-24T09:24:59.647Z,8.50
2018-03-24T09:27:27.218Z,8.90
2018-03-24T09:29:54.819Z,8.90
2018-03-24T09:32:22.394Z,8.80
2018-03-24T09:34:50.758Z,9.00
2018-03-24T09:37:19.091Z,9.10
2018-03-24T09:39:46.675Z,9.10
2018-03-24T09:42:14.248Z,9.30
2018-03-24T09:44:41.923Z,9.30
2018-03-24T09:47:10.251Z,9.80
2018-03-24T09:49:37.850Z,9.80
2018-03-24T09:52:05.423Z,9.60
2018-03-24T09:54:33.769Z,9.70
2018-03-24T09:57:01.354Z,9.60
2018-03-24T09:59:29.687Z,9.60
2018-03-24T10:01:57.331Z,9.70
2018-03-24T10:04:24.898Z,9.70
2018-03-24T10:07:04.392Z,10.00
2018-03-24T10:09:32.428Z,10.00
2018-03-24T10:12:00.008Z,9.90
2018-03-24T10:14:28.352Z,10.00
2018-03-24T10:16:55.952Z,10.00
2018-03-24T10:19:23.523Z,10.10
2018-03-24T10:25:04.565Z,10.40
2018-03-24T10:27:32.241Z,10.40
2018-03-24T10:29:59.927Z,10.50
2018-03-24T10:32:27.670Z,10.60
2018-03-24T10:35:01.078Z,10.50
2018-03-24T10:37:28.736Z,10.50
2018-03-24T10:39:57.471Z,10.60
2018-03-24T10:42:25.100Z,10.90
2018-03-24T10:44:52.674Z,11.00
2018-03-24T10:47:21.041Z,11.30
2018-03-24T10:49:48.661Z,11.20
2018-03-24T10:52:16.495Z,11.50
2018-03-24T10:54:44.929Z,11.60
2018-03-24T10:57:12.516Z,11.60
2018-03-24T10:59:40.147Z,11.80
2018-03-24T11:02:08.628Z,12.20
2018-03-24T11:04:36.971Z,12.60
2018-03-24T11:07:06.852Z,12.60
2018-03-24T11:09:34.544Z,12.80
2018-03-24T11:12:02.257Z,12.80
2018-03-24T11:14:30.580Z,12.70
2018-03-24T11:16:58.161Z,12.70
2018-03-24T11:19:25.796Z,12.90
2018-03-24T11:21:53.376Z,13.20
2018-03-24T11:24:20.951Z,13.20
2018-03-24T11:26:48.574Z,13.30
2018-03-24T11:29:16.155Z,13.70
2018-03-24T11:31:43.733Z,13.90
2018-03-24T11:34:11.351Z,14.10
2018-03-24T11:36:38.928Z,14.60
2018-03-24T11:39:06.570Z,14.90
2018-03-24T11:41:34.201Z,14.80
2018-03-24T11:44:01.742Z,14.90
2018-03-24T11:46:30.169Z,14.80
2018-03-24T11:48:58.497Z,14.70
2018-03-24T11:51:26.102Z,14.70
2018-03-24T11:53:53.752Z,14.60
2018-03-24T11:56:21.500Z,14.70
2018-03-24T11:58:49.068Z,15.10
2018-03-24T12:01:16.629Z,15.50
2018-03-24T12:03:44.277Z,16.00
2018-03-24T12:06:11.860Z,16.00
2018-03-24T12:08:39.463Z,15.90
2018-03-24T12:11:07.029Z,16.20
2018-03-24T12:13:34.683Z,16.20
2018-03-24T12:16:02.279Z,16.30
2018-03-24T12:18:30.765Z,16.40
2018-03-24T12:20:58.379Z,16.40
2018-03-24T12:23:25.956Z,16.90
2018-03-24T12:25:53.532Z,17.20
2018-03-24T12:28:21.883Z,17.60
2018-03-24T12:30:50.015Z,17.60
2018-03-24T12:33:17.624Z,17.70
2018-03-24T12:35:46.264Z,17.80
2018-03-24T12:38:13.853Z,17.70
2018-03-24T12:40:41.429Z,17.70
2018-03-24T12:43:09.830Z,18.00
2018-03-24T12:45:38.175Z,18.40
2018-03-24T12:48:05.761Z,18.40
2018-03-24T12:50:34.080Z,18.40
2018-03-24T12:53:01.669Z,18.40
2018-03-24T12:55:29.263Z,18.80
2018-03-24T12:57:57.611Z,19.00
2018-03-24T13:00:25.213Z,19.00
2018-03-24T13:02:53.632Z,18.70
2018-03-24T13:05:21.209Z,18.60
2018-03-24T13:07:48.914Z,18.70
2018-03-24T13:10:16.606Z,18.40
2018-03-24T13:12:44.410Z,18.40
2018-03-24T13:15:11.985Z,18.40
2018-03-24T13:17:39.637Z,18.50
2018-03-24T13:20:07.231Z,18.90
2018-03-24T13:22:35.644Z,19.20
2018-03-24T13:25:03.238Z,19.20
2018-03-24T13:27:31.579Z,19.30
2018-03-24T13:29:59.196Z,19.30
2018-03-24T13:32:26.952Z,19.00
2018-03-24T13:34:54.586Z,19.20
2018-03-24T13:37:22.912Z,19.50
2018-03-24T13:39:50.485Z,19.40
2018-03-24T13:42:19.046Z,20.10
2018-03-24T13:44:46.688Z,20.50
2018-03-24T13:47:15.094Z,20.00
2018-03-24T13:49:42.682Z,19.90
2018-03-24T13:52:10.341Z,19.80
2018-03-24T13:54:38.081Z,20.20
2018-03-24T13:57:05.680Z,20.70
2018-03-24T13:59:34.057Z,20.80
2018-03-24T14:02:02.288Z,20.80
2018-03-24T14:04:29.886Z,20.30
2018-03-24T14:06:57.573Z,20.50
2018-03-24T14:09:25.922Z,21.50
2018-03-24T14:11:53.487Z,21.50
2018-03-24T14:14:21.088Z,21.90
2018-03-24T14:16:48.663Z,22.30
2018-03-24T14:19:16.253Z,22.40
2018-03-24T14:21:43.831Z,21.80
2018-03-24T14:24:11.457Z,21.40
2018-03-24T14:26:39.235Z,21.20
2018-03-24T14:29:06.875Z,21.70
2018-03-24T14:31:34.505Z,21.50
2018-03-24T14:34:02.880Z,22.60
2018-03-24T14:36:31.209Z,22.90
2018-03-24T14:38:58.773Z,22.80
2018-03-24T14:41:26.378Z,22.40
2018-03-24T14:43:54.720Z,22.20
2018-03-24T14:46:23.069Z,22.10
2018-03-24T14:48:50.637Z,22.10
2018-03-24T14:51:18.227Z,22.00
2018-03-24T14:53:45.804Z,21.80
2018-03-24T14:56:13.402Z,21.90
2018-03-24T14:58:41.077Z,22.40
2018-03-24T15:01:08.701Z,22.40
2018-03-24T15:03:37.032Z,22.20
2018-03-24T15:06:06.851Z,22.10
2018-03-24T15:08:34.480Z,21.70
2018-03-24T15:11:02.092Z,21.80
2018-03-24T15:13:29.671Z,22.00
2018-03-24T15:15:58.090Z,22.80
2018-03-24T15:18:25.724Z,22.80
2018-03-24T15:20:53.364Z,22.80
2018-03-24T15:23:20.932Z,22.70
2018-03-24T15:25:48.531Z,22.70
2018-03-24T15:28:16.116Z,22.40
2018-03-24T15:30:56.302Z,22.90
2018-03-24T15:33:35.672Z,22.90
2018-03-24T15:36:15.071Z,23.40
2018-03-24T15:38:42.634Z,23.40
2018-03-24T15:41:11.011Z,22.30
2018-03-24T15:43:38.577Z,22.30
2018-03-24T15:46:06.166Z,22.30
2018-03-24T15:48:33.754Z,22.10
2018-03-24T15:51:01.470Z,22.60
2018-03-24T15:53:29.231Z,21.70
2018-03-24T15:55:56.830Z,21.40
2018-03-24T15:58:24.410Z,21.80
2018-03-24T16:00:54.495Z,22.20
2018-03-24T16:03:22.061Z,22.10
2018-03-24T16:05:50.015Z,22.20
2018-03-24T16:08:17.621Z,22.40
2018-03-24T16:10:46.008Z,21.90
2018-03-24T16:13:14.366Z,21.60
2018-03-24T16:15:41.938Z,21.60
2018-03-24T16:18:10.292Z,21.20
2018-03-24T16:20:37.870Z,21.20
2018-03-24T16:23:06.246Z,21.80
2018-03-24T16:25:34.582Z,21.90
2018-03-24T16:28:02.203Z,21.90
2018-03-24T16:30:30.612Z,21.80
2018-03-24T16:32:58.210Z,21.80
2018-03-24T16:35:26.601Z,21.60
2018-03-24T16:37:55.409Z,21.50
2018-03-24T16:40:23.996Z,21.20
2018-03-24T16:42:52.379Z,21.20
2018-03-24T16:45:19.957Z,21.10
2018-03-24T16:47:47.565Z,21.30
2018-03-24T16:50:15.249Z,21.10
2018-03-24T16:52:43.776Z,19.80
2018-03-24T16:55:11.343Z,19.70
2018-03-24T16:57:39.693Z,19.00
2018-03-24T17:00:08.085Z,18.90
2018-03-24T17:02:36.408Z,18.80
2018-03-24T17:05:04.022Z,18.80
2018-03-24T17:07:31.622Z,18.70
2018-03-24T17:10:00.319Z,17.50
2018-03-24T17:12:27.904Z,17.50
2018-03-24T17:14:56.427Z,16.90
2018-03-24T17:17:24.038Z,16.80
2018-03-24T17:19:51.631Z,16.70
2018-03-24T17:22:19.351Z,16.50
2018-03-24T17:24:47.029Z,16.30
2018-03-24T17:27:14.708Z,16.00
2018-03-24T17:29:43.051Z,15.70
2018-03-24T17:32:10.642Z,15.70
2018-03-24T17:34:38.219Z,15.60
2018-03-24T17:37:05.780Z,15.60
2018-03-24T17:39:33.480Z,15.30
2018-03-24T17:42:01.849Z,14.80
2018-03-24T17:44:30.200Z,14.30
2018-03-24T17:46:57.962Z,14.30
2018-03-24T17:49:25.651Z,14.20
2018-03-24T17:51:53.192Z,14.00
2018-03-24T17:54:21.564Z,13.80
2018-03-24T17:56:49.138Z,13.80
2018-03-24T17:59:16.728Z,13.70
2018-03-24T18:01:45.655Z,13.60
2018-03-24T18:04:13.343Z,13.50
2018-03-24T18:06:40.905Z,13.30
2018-03-24T18:09:08.493Z,13.20
2018-03-24T18:11:36.903Z,13.10
2018-03-24T18:14:04.484Z,13.10
2018-03-24T18:16:32.051Z,13.10
2018-03-24T18:18:59.719Z,12.90
2018-03-24T18:21:27.433Z,12.80
2018-03-24T18:23:55.047Z,12.70
2018-03-24T18:26:22.748Z,12.50
2018-03-24T18:28:51.113Z,12.40
2018-03-24T18:31:19.500Z,12.10
2018-03-24T18:33:47.114Z,12.10
2018-03-24T18:36:14.681Z,12.00
2018-03-24T18:38:42.323Z,11.90
2018-03-24T18:41:09.903Z,12.00
2018-03-24T18:43:37.510Z,12.00
2018-03-24T18:46:05.906Z,11.80
2018-03-24T18:48:33.472Z,11.80
2018-03-24T18:51:01.107Z,11.80
2018-03-24T18:53:28.681Z,11.80
2018-03-24T18:55:56.274Z,11.70
2018-03-24T18:58:23.888Z,11.70
2018-03-24T19:00:51.486Z,11.70
2018-03-24T19:03:19.185Z,11.60
2018-03-24T19:05:46.768Z,11.50
2018-03-24T19:08:14.341Z,11.50
2018-03-24T19:10:41.966Z,11.30
2018-03-24T19:13:09.531Z,11.30
2018-03-24T19:15:37.129Z,11.20
2018-03-24T19:18:04.711Z,11.10
2018-03-24T19:20:32.305Z,11.00
2018-03-24T19:22:59.872Z,10.80
2018-03-24T19:25:28.558Z,10.90
2018-03-24T19:27:56.338Z,10.80
2018-03-24T19:30:23.934Z,10.90
2018-03-24T19:32:51.495Z,10.60
2018-03-24T19:35:19.098Z,10.50
2018-03-24T19:37:46.800Z,10.50
2018-03-24T19:40:14.384Z,10.40
2018-03-24T19:42:41.962Z,10.30
2018-03-24T19:45:10.342Z,10.30
2018-03-24T19:47:38.681Z,10.20
2018-03-24T19:50:06.304Z,10.20
2018-03-24T19:52:33.909Z,10.20
2018-03-24T19:55:02.996Z,10.10
2018-03-24T19:57:30.579Z,10.10
2018-03-24T19:59:58.167Z,10.10
2018-03-24T20:02:25.760Z,10.00
2018-03-24T20:04:55.993Z,10.00
2018-03-24T20:07:23.633Z,10.00
2018-03-24T20:09:51.314Z,9.90
2018-03-24T20:12:18.923Z,10.00
2018-03-24T20:14:47.296Z,10.00
2018-03-24T20:17:15.667Z,10.00
2018-03-24T20:19:43.248Z,10.00
2018-03-24T20:22:11.666Z,10.00
2018-03-24T20:24:39.258Z,9.90
2018-03-24T20:27:06.900Z,9.90
2018-03-24T20:29:34.597Z,9.80
2018-03-24T20:32:02.209Z,9.80
2018-03-24T20:34:29.779Z,9.70
2018-03-24T20:36:57.390Z,9.60
2018-03-24T20:39:25.727Z,9.60
2018-03-24T20:41:53.314Z,9.60
2018-03-24T20:44:20.883Z,9.60
2018-03-24T20:46:49.513Z,9.50
2018-03-24T20:49:17.094Z,9.50
2018-03-24T20:51:44.829Z,9.50
2018-03-24T20:54:12.397Z,9.50
2018-03-24T20:56:39.986Z,9.40
2018-03-24T20:59:07.550Z,9.40
2018-03-24T21:01:35.950Z,9.50
2018-03-24T21:04:03.544Z,9.40
2018-03-24T21:06:31.135Z,9.50
2018-03-24T21:08:58.791Z,9.40
2018-03-24T21:11:26.361Z,9.40
2018-03-24T21:13:54.823Z,9.30
2018-03-24T21:16:22.492Z,9.30
2018-03-24T21:18:50.094Z,9.20
2018-03-24T21:21:17.692Z,9.20
2018-03-24T21:23:45.435Z,9.00
2018-03-24T21:26:13.005Z,8.80
2018-03-24T21:28:40.591Z,8.80
2018-03-24T21:31:08.339Z,8.70
2018-03-24T21:33:35.932Z,8.70
2018-03-24T21:36:04.344Z,8.70
2018-03-24T21:38:32.009Z,8.70
2018-03-24T21:40:59.580Z,8.70
2018-03-24T21:43:27.173Z,8.70
2018-03-24T21:45:54.748Z,8.60
2018-03-24T21:48:23.123Z,8.50
2018-03-24T21:50:51.478Z,8.50
2018-03-24T21:53:19.051Z,8.40
2018-03-24T21:55:47.413Z,8.40
2018-03-24T21:58:15.008Z,8.30
2018-03-24T22:00:43.357Z,8.50
2018-03-24T22:03:10.956Z,8.40
2018-03-24T22:05:39.303Z,8.30
2018-03-24T22:08:06.882Z,8.30
2018-03-24T22:10:34.521Z,8.20
2018-03-24T22:13:02.095Z,8.20
2018-03-24T22:15:29.722Z,8.20
2018-03-24T22:17:57.309Z,8.10
2018-03-24T22:20:24.908Z,8.00
2018-03-24T22:22:52.521Z,8.00
2018-03-24T22:25:20.123Z,7.80
2018-03-24T22:27:47.692Z,7.60
2018-03-24T22:30:15.281Z,7.60
2018-03-24T22:32:42.844Z,7.50
2018-03-24T22:35:10.456Z,7.40
2018-03-24T22:37:38.786Z,7.20
2018-03-24T22:40:06.387Z,7.20
2018-03-24T22:42:34.729Z,7.10
2018-03-24T22:45:02.326Z,7.10
2018-03-24T22:47:30.669Z,7.00
2018-03-24T22:49:58.273Z,7.00
2018-03-24T22:52:26.727Z,7.10
2018-03-24T22:54:54.316Z,7.00
2018-03-24T22:57:21.933Z,7.10
2018-03-24T22:59:49.497Z,7.00
2018-03-24T23:02:17.113Z,6.80
2018-03-24T23:04:44.662Z,6.80
2018-03-24T23:07:13.032Z,6.70
2018-03-24T23:09:40.612Z,6.70
2018-03-24T23:12:08.283Z,6.60
2018-03-24T23:14:35.816Z,6.50
2018-03-24T23:17:03.495Z,6.60
2018-03-24T23:19:31.073Z,6.50
2018-03-24T23:21:58.659Z,6.50
2018-03-24T23:24:27.038Z,6.60
2018-03-24T23:26:55.412Z,6.70
2018-03-24T23:29:23.746Z,6.60
2018-03-24T23:31:51.328Z,6.60
2018-03-24T23:34:18.945Z,6.40
2018-03-24T23:36:46.528Z,6.40
2018-03-24T23:39:14.095Z,6.30
2018-03-24T23:41:42.466Z,6.30
2018-03-24T23:44:10.032Z,6.20
2018-03-24T23:46:37.631Z,6.20
2018-03-24T23:49:05.968Z,6.30
2018-03-24T23:51:33.575Z,6.30
2018-03-24T23:54:01.918Z,6.20
2018-03-24T23:56:29.507Z,6.20
2018-03-24T23:58:57.877Z,6.00
